N488PC KPDK-KJQF
Flight info
| Callsign | N488PC |
|---|---|
| Flight time | 0h 39m |
| Altitude | 29000 |
| Route | EAONE AHN HRTWL JOOLS JOOLS1 |
| Aircraft | C25C/M-SDE2E3FGHRWXY/LB1 |
Departure
| Time | 2026-04-19 03:32 |
|---|---|
| Airport | DeKalb Peachtree Airport (KPDK) |
Arrival
| Time | 2026-04-19 04:12 |
|---|---|
| Airport | Concord-Padgett Regional Airport (KJQF) |
| Time | Latitude | Longitude | Altitude | Speed | Heading |
|---|---|---|---|---|---|
| 2026-04-19 03:09 | 33.87484 | -84.30683 | 1006 ft | 0 kts | 96° |
| 2026-04-19 03:26 | 33.87482 | -84.30666 | 1006 ft | 6 kts | 96° |
| 2026-04-19 03:26 | 33.87472 | -84.30562 | 1002 ft | 19 kts | 97° |
| 2026-04-19 03:26 | 33.87457 | -84.30425 | 997 ft | 12 kts | 87° |
| 2026-04-19 03:27 | 33.87517 | -84.30365 | 996 ft | 12 kts | 26° |
| 2026-04-19 03:27 | 33.87599 | -84.30327 | 996 ft | 13 kts | 17° |
| 2026-04-19 03:27 | 33.87689 | -84.30293 | 994 ft | 15 kts | 18° |
| 2026-04-19 03:27 | 33.87789 | -84.30249 | 993 ft | 15 kts | 18° |
| 2026-04-19 03:28 | 33.87878 | -84.30210 | 996 ft | 12 kts | 19° |
| 2026-04-19 03:28 | 33.87957 | -84.30173 | 995 ft | 13 kts | 21° |
| 2026-04-19 03:28 | 33.88055 | -84.30129 | 992 ft | 16 kts | 20° |
| 2026-04-19 03:28 | 33.88160 | -84.30084 | 991 ft | 16 kts | 19° |
| 2026-04-19 03:29 | 33.88267 | -84.30039 | 995 ft | 15 kts | 21° |
| 2026-04-19 03:29 | 33.88349 | -84.29997 | 990 ft | 9 kts | 22° |
| 2026-04-19 03:29 | 33.88407 | -84.29970 | 986 ft | 9 kts | 20° |
| 2026-04-19 03:29 | 33.88431 | -84.29959 | 986 ft | 1 kts | 23° |
| 2026-04-19 03:30 | 33.88432 | -84.29958 | 986 ft | 0 kts | 24° |
| 2026-04-19 03:31 | 33.88450 | -84.29944 | 988 ft | 8 kts | 51° |
| 2026-04-19 03:31 | 33.88442 | -84.29854 | 986 ft | 14 kts | 112° |
| 2026-04-19 03:31 | 33.88403 | -84.29741 | 992 ft | 15 kts | 128° |
| 2026-04-19 03:31 | 33.88304 | -84.29755 | 987 ft | 31 kts | 201° |
| 2026-04-19 03:32 | 33.87781 | -84.29993 | 1025 ft | 129 kts | 200° |
| 2026-04-19 03:32 | 33.86762 | -84.30437 | 1672 ft | 176 kts | 201° |
| 2026-04-19 03:32 | 33.85563 | -84.30959 | 2838 ft | 187 kts | 204° |
| 2026-04-19 03:32 | 33.84255 | -84.31485 | 3779 ft | 213 kts | 196° |
| 2026-04-19 03:33 | 33.82701 | -84.31047 | 4785 ft | 255 kts | 148° |
| 2026-04-19 03:33 | 33.81497 | -84.29343 | 5855 ft | 280 kts | 121° |
| 2026-04-19 03:33 | 33.80518 | -84.27279 | 6887 ft | 287 kts | 120° |
| 2026-04-19 03:33 | 33.79959 | -84.24964 | 7890 ft | 296 kts | 93° |
| 2026-04-19 03:34 | 33.80185 | -84.22485 | 8878 ft | 303 kts | 74° |
| 2026-04-19 03:34 | 33.80845 | -84.20080 | 9845 ft | 311 kts | 71° |
| 2026-04-19 03:34 | 33.81599 | -84.17608 | 10679 ft | 322 kts | 69° |
| 2026-04-19 03:34 | 33.82372 | -84.14999 | 11323 ft | 336 kts | 71° |
| 2026-04-19 03:35 | 33.83108 | -84.12315 | 12197 ft | 341 kts | 71° |
| 2026-04-19 03:35 | 33.83883 | -84.09584 | 12998 ft | 348 kts | 72° |
| 2026-04-19 03:35 | 33.84666 | -84.06808 | 13810 ft | 354 kts | 72° |
| 2026-04-19 03:35 | 33.85474 | -84.03983 | 14531 ft | 360 kts | 72° |
| 2026-04-19 03:36 | 33.86277 | -84.01112 | 15271 ft | 365 kts | 72° |
| 2026-04-19 03:36 | 33.87103 | -83.98205 | 16020 ft | 369 kts | 72° |
| 2026-04-19 03:36 | 33.87928 | -83.95257 | 16730 ft | 374 kts | 71° |
| 2026-04-19 03:36 | 33.88461 | -83.92240 | 17390 ft | 376 kts | 92° |
| 2026-04-19 03:37 | 33.88210 | -83.89105 | 18073 ft | 378 kts | 101° |
| 2026-04-19 03:37 | 33.87846 | -83.85945 | 18687 ft | 383 kts | 101° |
| 2026-04-19 03:37 | 33.87552 | -83.82739 | 19284 ft | 390 kts | 96° |
| 2026-04-19 03:37 | 33.87503 | -83.79450 | 19877 ft | 397 kts | 86° |
| 2026-04-19 03:38 | 33.88001 | -83.76160 | 20480 ft | 402 kts | 78° |
| 2026-04-19 03:38 | 33.88573 | -83.72838 | 20994 ft | 411 kts | 79° |
| 2026-04-19 03:38 | 33.89124 | -83.69379 | 21060 ft | 431 kts | 80° |
| 2026-04-19 03:38 | 33.89654 | -83.65745 | 21073 ft | 449 kts | 80° |
| 2026-04-19 03:39 | 33.90230 | -83.61988 | 21072 ft | 462 kts | 79° |
| 2026-04-19 03:39 | 33.90826 | -83.58193 | 21070 ft | 461 kts | 79° |
| 2026-04-19 03:39 | 33.91416 | -83.54416 | 21065 ft | 460 kts | 79° |
| 2026-04-19 03:39 | 33.91988 | -83.50636 | 21052 ft | 458 kts | 79° |
| 2026-04-19 03:40 | 33.92564 | -83.46866 | 21052 ft | 457 kts | 79° |
| 2026-04-19 03:40 | 33.93140 | -83.43104 | 21043 ft | 457 kts | 79° |
| 2026-04-19 03:40 | 33.93716 | -83.39347 | 21045 ft | 456 kts | 79° |
| 2026-04-19 03:40 | 33.94288 | -83.35592 | 21045 ft | 456 kts | 79° |
| 2026-04-19 03:41 | 33.94920 | -83.31908 | 21039 ft | 455 kts | 73° |
| 2026-04-19 03:41 | 33.95888 | -83.28284 | 21038 ft | 454 kts | 71° |
| 2026-04-19 03:41 | 33.96825 | -83.24650 | 21038 ft | 454 kts | 72° |
| 2026-04-19 03:41 | 33.97787 | -83.21027 | 21038 ft | 454 kts | 71° |
| 2026-04-19 03:42 | 33.98747 | -83.17405 | 21034 ft | 454 kts | 71° |
| 2026-04-19 03:42 | 33.99709 | -83.13784 | 21020 ft | 454 kts | 71° |
| 2026-04-19 03:42 | 34.00655 | -83.10160 | 21017 ft | 453 kts | 71° |
| 2026-04-19 03:42 | 34.01606 | -83.06550 | 21010 ft | 453 kts | 71° |
| 2026-04-19 03:43 | 34.02555 | -83.02931 | 21023 ft | 453 kts | 72° |
| 2026-04-19 03:43 | 34.03508 | -82.99310 | 21025 ft | 453 kts | 71° |
| 2026-04-19 03:43 | 34.04456 | -82.95683 | 21028 ft | 454 kts | 72° |
| 2026-04-19 03:43 | 34.05406 | -82.92056 | 21031 ft | 454 kts | 71° |
| 2026-04-19 03:44 | 34.06341 | -82.88474 | 21034 ft | 454 kts | 72° |
| 2026-04-19 03:44 | 34.07301 | -82.84794 | 21034 ft | 454 kts | 71° |
| 2026-04-19 03:44 | 34.08234 | -82.81209 | 21034 ft | 454 kts | 72° |
| 2026-04-19 03:44 | 34.09180 | -82.77575 | 21026 ft | 454 kts | 71° |
| 2026-04-19 03:45 | 34.10124 | -82.73946 | 21026 ft | 454 kts | 72° |
| 2026-04-19 03:45 | 34.11065 | -82.70313 | 21026 ft | 453 kts | 71° |
| 2026-04-19 03:45 | 34.12007 | -82.66682 | 21022 ft | 453 kts | 72° |
| 2026-04-19 03:45 | 34.12945 | -82.63050 | 21019 ft | 453 kts | 71° |
| 2026-04-19 03:46 | 34.13885 | -82.59420 | 21014 ft | 453 kts | 72° |
| 2026-04-19 03:46 | 34.14820 | -82.55787 | 21010 ft | 453 kts | 72° |
| 2026-04-19 03:46 | 34.15759 | -82.52156 | 21006 ft | 453 kts | 72° |
| 2026-04-19 03:46 | 34.16692 | -82.48519 | 21000 ft | 453 kts | 72° |
| 2026-04-19 03:47 | 34.17629 | -82.44885 | 21005 ft | 453 kts | 72° |
| 2026-04-19 03:47 | 34.18559 | -82.41249 | 21008 ft | 453 kts | 72° |
| 2026-04-19 03:47 | 34.19492 | -82.37620 | 21001 ft | 453 kts | 72° |
| 2026-04-19 03:47 | 34.20405 | -82.34038 | 21005 ft | 452 kts | 72° |
| 2026-04-19 03:48 | 34.21335 | -82.30414 | 21010 ft | 451 kts | 72° |
| 2026-04-19 03:48 | 34.22256 | -82.26791 | 21013 ft | 451 kts | 72° |
| 2026-04-19 03:48 | 34.23182 | -82.23172 | 21031 ft | 451 kts | 72° |
| 2026-04-19 03:48 | 34.24101 | -82.19547 | 21023 ft | 451 kts | 72° |
| 2026-04-19 03:49 | 34.25058 | -82.15942 | 21019 ft | 451 kts | 68° |
| 2026-04-19 03:49 | 34.26492 | -82.12585 | 21009 ft | 449 kts | 57° |
| 2026-04-19 03:49 | 34.28080 | -82.09329 | 21010 ft | 449 kts | 57° |
| 2026-04-19 03:49 | 34.29714 | -82.06080 | 20692 ft | 457 kts | 57° |
| 2026-04-19 03:50 | 34.31304 | -82.02805 | 20106 ft | 446 kts | 58° |
| 2026-04-19 03:50 | 34.32821 | -81.99630 | 19528 ft | 438 kts | 58° |
| 2026-04-19 03:50 | 34.34348 | -81.96464 | 18951 ft | 433 kts | 58° |
| 2026-04-19 03:50 | 34.35871 | -81.93343 | 18382 ft | 428 kts | 58° |
| 2026-04-19 03:51 | 34.37369 | -81.90251 | 17778 ft | 423 kts | 59° |
| 2026-04-19 03:51 | 34.38838 | -81.87199 | 17222 ft | 417 kts | 58° |
| 2026-04-19 03:51 | 34.40292 | -81.84183 | 16683 ft | 412 kts | 59° |
| 2026-04-19 03:51 | 34.41732 | -81.81202 | 16144 ft | 408 kts | 59° |
| 2026-04-19 03:52 | 34.43158 | -81.78250 | 15608 ft | 404 kts | 59° |
| 2026-04-19 03:52 | 34.44564 | -81.75320 | 15078 ft | 401 kts | 59° |
| 2026-04-19 03:52 | 34.45966 | -81.72414 | 14540 ft | 398 kts | 59° |
| 2026-04-19 03:52 | 34.47353 | -81.69518 | 14009 ft | 396 kts | 59° |
| 2026-04-19 03:53 | 34.48723 | -81.66678 | 13462 ft | 394 kts | 60° |
| 2026-04-19 03:53 | 34.50092 | -81.63813 | 12928 ft | 390 kts | 59° |
| 2026-04-19 03:53 | 34.51455 | -81.60985 | 12411 ft | 387 kts | 59° |
| 2026-04-19 03:53 | 34.52791 | -81.58181 | 11901 ft | 383 kts | 60° |
| 2026-04-19 03:54 | 34.54129 | -81.55401 | 11379 ft | 380 kts | 60° |
| 2026-04-19 03:54 | 34.55449 | -81.52627 | 10883 ft | 378 kts | 60° |
| 2026-04-19 03:54 | 34.56770 | -81.49878 | 10387 ft | 376 kts | 60° |
| 2026-04-19 03:54 | 34.58071 | -81.47133 | 9898 ft | 374 kts | 61° |
| 2026-04-19 03:55 | 34.59338 | -81.44380 | 9368 ft | 372 kts | 62° |
| 2026-04-19 03:55 | 34.60564 | -81.41637 | 8926 ft | 368 kts | 62° |
| 2026-04-19 03:55 | 34.61914 | -81.39022 | 8490 ft | 365 kts | 48° |
| 2026-04-19 03:55 | 34.63838 | -81.37067 | 8041 ft | 353 kts | 36° |
| 2026-04-19 03:56 | 34.65763 | -81.35376 | 7596 ft | 324 kts | 34° |
| 2026-04-19 03:56 | 34.67519 | -81.33935 | 7200 ft | 305 kts | 32° |
| 2026-04-19 03:56 | 34.69263 | -81.32494 | 6808 ft | 301 kts | 33° |
| 2026-04-19 03:56 | 34.70956 | -81.31015 | 6413 ft | 298 kts | 34° |
| 2026-04-19 03:57 | 34.72628 | -81.29539 | 6008 ft | 295 kts | 34° |
| 2026-04-19 03:57 | 34.74270 | -81.28060 | 5614 ft | 293 kts | 34° |
| 2026-04-19 03:57 | 34.75904 | -81.26600 | 5238 ft | 290 kts | 34° |
| 2026-04-19 03:57 | 34.77571 | -81.25225 | 4857 ft | 289 kts | 29° |
| 2026-04-19 03:58 | 34.79286 | -81.23952 | 4480 ft | 289 kts | 29° |
| 2026-04-19 03:58 | 34.81007 | -81.22669 | 4099 ft | 290 kts | 28° |
| 2026-04-19 03:58 | 34.82721 | -81.21399 | 4030 ft | 289 kts | 28° |
| 2026-04-19 03:58 | 34.84434 | -81.20126 | 4019 ft | 288 kts | 28° |
| 2026-04-19 03:59 | 34.86143 | -81.18853 | 4016 ft | 288 kts | 28° |
| 2026-04-19 03:59 | 34.87853 | -81.17583 | 4018 ft | 288 kts | 28° |
| 2026-04-19 03:59 | 34.89541 | -81.16321 | 4014 ft | 289 kts | 28° |
| 2026-04-19 03:59 | 34.91253 | -81.15039 | 3996 ft | 289 kts | 28° |
| 2026-04-19 04:00 | 34.92968 | -81.13765 | 4002 ft | 289 kts | 28° |
| 2026-04-19 04:00 | 34.94678 | -81.12476 | 4001 ft | 289 kts | 28° |
| 2026-04-19 04:00 | 34.96397 | -81.11198 | 4000 ft | 290 kts | 28° |
| 2026-04-19 04:00 | 34.98109 | -81.09902 | 4000 ft | 289 kts | 28° |
| 2026-04-19 04:01 | 34.99829 | -81.08623 | 4000 ft | 290 kts | 29° |
| 2026-04-19 04:01 | 35.03031 | -81.05619 | 3996 ft | 291 kts | 35° |
| 2026-04-19 04:01 | 35.04603 | -81.04061 | 3999 ft | 291 kts | 36° |
| 2026-04-19 04:02 | 35.06180 | -81.02507 | 4000 ft | 292 kts | 36° |
| 2026-04-19 04:02 | 35.07754 | -81.00939 | 3998 ft | 292 kts | 36° |
| 2026-04-19 04:02 | 35.09315 | -80.99406 | 3998 ft | 292 kts | 36° |
| 2026-04-19 04:02 | 35.10897 | -80.97851 | 3995 ft | 292 kts | 36° |
| 2026-04-19 04:03 | 35.12480 | -80.96308 | 3991 ft | 291 kts | 36° |
| 2026-04-19 04:03 | 35.14058 | -80.94761 | 3992 ft | 291 kts | 36° |
| 2026-04-19 04:03 | 35.15640 | -80.93221 | 3988 ft | 291 kts | 36° |
| 2026-04-19 04:03 | 35.17215 | -80.91670 | 3992 ft | 290 kts | 36° |
| 2026-04-19 04:04 | 35.18789 | -80.90119 | 3987 ft | 291 kts | 37° |
| 2026-04-19 04:04 | 35.20364 | -80.88571 | 3988 ft | 290 kts | 36° |
| 2026-04-19 04:04 | 35.21947 | -80.87037 | 3985 ft | 291 kts | 36° |
| 2026-04-19 04:04 | 35.23522 | -80.85491 | 3987 ft | 290 kts | 36° |
| 2026-04-19 04:05 | 35.25103 | -80.83952 | 3986 ft | 291 kts | 36° |
| 2026-04-19 04:05 | 35.26661 | -80.82427 | 3985 ft | 290 kts | 36° |
| 2026-04-19 04:05 | 35.28241 | -80.80889 | 3987 ft | 290 kts | 36° |
| 2026-04-19 04:05 | 35.29799 | -80.79354 | 4000 ft | 282 kts | 35° |
| 2026-04-19 04:06 | 35.31298 | -80.77880 | 3995 ft | 272 kts | 36° |
| 2026-04-19 04:06 | 35.32748 | -80.76431 | 3869 ft | 264 kts | 36° |
| 2026-04-19 04:06 | 35.34151 | -80.75042 | 3685 ft | 254 kts | 36° |
| 2026-04-19 04:06 | 35.35493 | -80.73685 | 3507 ft | 246 kts | 36° |
| 2026-04-19 04:07 | 35.36799 | -80.72368 | 3325 ft | 241 kts | 36° |
| 2026-04-19 04:07 | 35.38079 | -80.71060 | 3144 ft | 239 kts | 36° |
| 2026-04-19 04:07 | 35.39351 | -80.69794 | 3033 ft | 236 kts | 35° |
| 2026-04-19 04:07 | 35.40606 | -80.68534 | 3018 ft | 230 kts | 36° |
| 2026-04-19 04:08 | 35.41825 | -80.67309 | 2993 ft | 223 kts | 36° |
| 2026-04-19 04:08 | 35.42988 | -80.66112 | 2992 ft | 215 kts | 36° |
| 2026-04-19 04:08 | 35.44175 | -80.65056 | 2987 ft | 204 kts | 12° |
| 2026-04-19 04:08 | 35.45429 | -80.65209 | 2995 ft | 173 kts | 318° |
| 2026-04-19 04:09 | 35.45969 | -80.66351 | 2965 ft | 153 kts | 268° |
| 2026-04-19 04:09 | 35.45598 | -80.67553 | 2544 ft | 150 kts | 237° |
| 2026-04-19 04:09 | 35.44982 | -80.68523 | 2173 ft | 139 kts | 228° |
| 2026-04-19 04:09 | 35.44301 | -80.69147 | 2026 ft | 105 kts | 215° |
| 2026-04-19 04:10 | 35.43676 | -80.69491 | 1718 ft | 94 kts | 210° |
| 2026-04-19 04:10 | 35.43050 | -80.69784 | 1451 ft | 101 kts | 205° |
| 2026-04-19 04:10 | 35.42351 | -80.70045 | 1217 ft | 107 kts | 198° |
| 2026-04-19 04:10 | 35.41638 | -80.70249 | 1015 ft | 105 kts | 197° |
| 2026-04-19 04:11 | 35.40923 | -80.70428 | 942 ft | 105 kts | 192° |
| 2026-04-19 04:11 | 35.40220 | -80.70581 | 807 ft | 103 kts | 193° |
| 2026-04-19 04:11 | 35.39514 | -80.70745 | 680 ft | 100 kts | 194° |
| 2026-04-19 04:11 | 35.38922 | -80.70889 | 662 ft | 74 kts | 189° |
| 2026-04-19 04:12 | 35.38565 | -80.70973 | 660 ft | 23 kts | 191° |
| 2026-04-19 04:12 | 35.38536 | -80.71083 | 662 ft | 12 kts | 255° |
| 2026-04-19 04:12 | 35.38471 | -80.71122 | 662 ft | 11 kts | 198° |
| 2026-04-19 04:12 | 35.38459 | -80.71182 | 660 ft | 6 kts | 336° |
| 2026-04-19 04:13 | 35.38516 | -80.71171 | 660 ft | 8 kts | 10° |
| 2026-04-19 04:13 | 35.38536 | -80.71186 | 660 ft | 0 kts | 284° |